sensor_id;sensor_type;location;lat;lon;timestamp;pressure;altitude;pressure_sealevel;temperature;humidity
55590;BME280;41452;42.780;23.116;2024-01-30T00:02:05;96266.56;;;20.28;34.42
55590;BME280;41452;42.780;23.116;2024-01-30T00:04:30;96273.53;;;20.29;34.33
55590;BME280;41452;42.780;23.116;2024-01-30T00:06:56;96264.44;;;20.30;34.57
55590;BME280;41452;42.780;23.116;2024-01-30T00:09:21;96278.34;;;20.32;34.58
55590;BME280;41452;42.780;23.116;2024-01-30T00:11:46;96270.09;;;20.33;34.47
55590;BME280;41452;42.780;23.116;2024-01-30T00:14:11;96272.53;;;20.35;34.44
55590;BME280;41452;42.780;23.116;2024-01-30T00:16:37;96281.09;;;20.37;34.51
55590;BME280;41452;42.780;23.116;2024-01-30T00:19:02;96278.19;;;20.39;34.14
55590;BME280;41452;42.780;23.116;2024-01-30T00:21:28;96275.28;;;20.40;34.15
55590;BME280;41452;42.780;23.116;2024-01-30T00:23:53;96283.84;;;20.42;34.14
55590;BME280;41452;42.780;23.116;2024-01-30T00:26:19;96272.91;;;20.44;34.20
55590;BME280;41452;42.780;23.116;2024-01-30T00:28:44;96281.72;;;20.44;33.95
55590;BME280;41452;42.780;23.116;2024-01-30T00:31:09;96272.13;;;20.43;33.83
55590;BME280;41452;42.780;23.116;2024-01-30T00:33:38;96274.25;;;20.41;33.53
55590;BME280;41452;42.780;23.116;2024-01-30T00:36:04;96275.75;;;20.37;33.51
55590;BME280;41452;42.780;23.116;2024-01-30T00:38:30;96274.63;;;20.33;33.74
55590;BME280;41452;42.780;23.116;2024-01-30T00:40:55;96281.25;;;20.30;33.75
55590;BME280;41452;42.780;23.116;2024-01-30T00:43:20;96274.00;;;20.26;33.79
55590;BME280;41452;42.780;23.116;2024-01-30T00:45:46;96277.94;;;20.23;33.98
55590;BME280;41452;42.780;23.116;2024-01-30T00:48:11;96272.06;;;20.21;34.07
55590;BME280;41452;42.780;23.116;2024-01-30T00:50:36;96272.28;;;20.20;34.21
55590;BME280;41452;42.780;23.116;2024-01-30T00:53:02;96265.94;;;20.21;34.26
55590;BME280;41452;42.780;23.116;2024-01-30T00:55:27;96271.50;;;20.19;34.13
55590;BME280;41452;42.780;23.116;2024-01-30T00:57:52;96279.50;;;20.19;34.18
55590;BME280;41452;42.780;23.116;2024-01-30T01:00:17;96269.63;;;20.20;33.89
55590;BME280;41452;42.780;23.116;2024-01-30T01:02:43;96272.06;;;20.21;34.05
55590;BME280;41452;42.780;23.116;2024-01-30T01:05:08;96273.44;;;20.24;34.14
55590;BME280;41452;42.780;23.116;2024-01-30T01:07:33;96272.38;;;20.25;34.15
55590;BME280;41452;42.780;23.116;2024-01-30T01:09:59;96266.56;;;20.28;33.97
55590;BME280;41452;42.780;23.116;2024-01-30T01:12:24;96267.13;;;20.30;34.20
55590;BME280;41452;42.780;23.116;2024-01-30T01:14:49;96264.22;;;20.31;33.98
55590;BME280;41452;42.780;23.116;2024-01-30T01:17:15;96268.50;;;20.32;33.90
55590;BME280;41452;42.780;23.116;2024-01-30T01:19:40;96261.84;;;20.35;33.86
55590;BME280;41452;42.780;23.116;2024-01-30T01:22:05;96262.66;;;20.36;33.88
55590;BME280;41452;42.780;23.116;2024-01-30T01:24:31;96261.38;;;20.38;33.67
55590;BME280;41452;42.780;23.116;2024-01-30T01:26:57;96261.38;;;20.38;33.69
55590;BME280;41452;42.780;23.116;2024-01-30T01:29:22;96266.72;;;20.38;33.39
55590;BME280;41452;42.780;23.116;2024-01-30T01:31:53;96266.63;;;20.33;33.31
55590;BME280;41452;42.780;23.116;2024-01-30T01:34:18;96257.53;;;20.29;33.08
55590;BME280;41452;42.780;23.116;2024-01-30T01:36:44;96266.00;;;20.26;33.25
55590;BME280;41452;42.780;23.116;2024-01-30T01:39:09;96262.22;;;20.22;33.39
55590;BME280;41452;42.780;23.116;2024-01-30T01:41:34;96263.25;;;20.21;33.46
55590;BME280;41452;42.780;23.116;2024-01-30T01:43:59;96261.06;;;20.18;33.78
55590;BME280;41452;42.780;23.116;2024-01-30T01:46:29;96262.94;;;20.17;33.79
55590;BME280;41452;42.780;23.116;2024-01-30T01:48:55;96266.63;;;20.16;33.62
55590;BME280;41452;42.780;23.116;2024-01-30T01:51:21;96261.31;;;20.16;33.69
55590;BME280;41452;42.780;23.116;2024-01-30T01:53:47;96259.47;;;20.17;33.71
55590;BME280;41452;42.780;23.116;2024-01-30T01:56:12;96261.91;;;20.18;33.53
55590;BME280;41452;42.780;23.116;2024-01-30T01:58:37;96276.59;;;20.21;33.68
55590;BME280;41452;42.780;23.116;2024-01-30T02:01:03;96264.88;;;20.22;33.78
55590;BME280;41452;42.780;23.116;2024-01-30T02:03:28;96263.56;;;20.24;33.74
55590;BME280;41452;42.780;23.116;2024-01-30T02:05:55;96260.66;;;20.26;33.70
55590;BME280;41452;42.780;23.116;2024-01-30T02:08:21;96260.44;;;20.27;33.43
55590;BME280;41452;42.780;23.116;2024-01-30T02:10:46;96262.84;;;20.29;33.40
55590;BME280;41452;42.780;23.116;2024-01-30T02:13:12;96266.88;;;20.31;33.36
55590;BME280;41452;42.780;23.116;2024-01-30T02:15:37;96266.63;;;20.33;33.39
55590;BME280;41452;42.780;23.116;2024-01-30T02:18:02;96262.91;;;20.34;33.29
55590;BME280;41452;42.780;23.116;2024-01-30T02:20:28;96264.53;;;20.35;33.30
55590;BME280;41452;42.780;23.116;2024-01-30T02:22:54;96260.81;;;20.36;33.40
55590;BME280;41452;42.780;23.116;2024-01-30T02:25:29;96268.59;;;20.38;33.25
55590;BME280;41452;42.780;23.116;2024-01-30T02:27:55;96265.91;;;20.38;33.12
55590;BME280;41452;42.780;23.116;2024-01-30T02:30:20;96262.19;;;20.39;33.26
55590;BME280;41452;42.780;23.116;2024-01-30T02:32:45;96263.81;;;20.40;33.27
55590;BME280;41452;42.780;23.116;2024-01-30T02:35:10;96264.84;;;20.39;32.95
55590;BME280;41452;42.780;23.116;2024-01-30T02:37:36;96255.47;;;20.36;32.81
55590;BME280;41452;42.780;23.116;2024-01-30T02:40:01;96259.66;;;20.32;32.82
55590;BME280;41452;42.780;23.116;2024-01-30T02:42:26;96254.03;;;20.28;32.88
55590;BME280;41452;42.780;23.116;2024-01-30T02:44:51;96251.88;;;20.25;32.85
55590;BME280;41452;42.780;23.116;2024-01-30T02:47:17;96256.06;;;20.21;33.05
55590;BME280;41452;42.780;23.116;2024-01-30T02:49:42;96258.16;;;20.19;33.23
55590;BME280;41452;42.780;23.116;2024-01-30T02:52:07;96258.97;;;20.20;33.11
55590;BME280;41452;42.780;23.116;2024-01-30T02:54:32;96256.88;;;20.22;33.18
55590;BME280;41452;42.780;23.116;2024-01-30T02:56:57;96254.78;;;20.24;33.37
55590;BME280;41452;42.780;23.116;2024-01-30T02:59:23;96256.38;;;20.25;33.16
55590;BME280;41452;42.780;23.116;2024-01-30T03:01:48;96257.75;;;20.27;33.34
55590;BME280;41452;42.780;23.116;2024-01-30T03:04:13;96255.66;;;20.29;33.10
55590;BME280;41452;42.780;23.116;2024-01-30T03:06:39;96257.25;;;20.30;33.23
55590;BME280;41452;42.780;23.116;2024-01-30T03:09:09;96257.84;;;20.32;33.09
55590;BME280;41452;42.780;23.116;2024-01-30T03:11:34;96257.56;;;20.34;33.25
55590;BME280;41452;42.780;23.116;2024-01-30T03:14:00;96245.84;;;20.35;33.04
55590;BME280;41452;42.780;23.116;2024-01-30T03:16:25;96238.41;;;20.37;33.19
55590;BME280;41452;42.780;23.116;2024-01-30T03:18:50;96247.25;;;20.38;33.01
55590;BME280;41452;42.780;23.116;2024-01-30T03:21:15;96240.03;;;20.38;33.13
55590;BME280;41452;42.780;23.116;2024-01-30T03:23:40;96237.91;;;20.40;33.03
55590;BME280;41452;42.780;23.116;2024-01-30T03:26:06;96241.38;;;20.41;32.99
55590;BME280;41452;42.780;23.116;2024-01-30T03:28:31;96245.69;;;20.42;33.07
55590;BME280;41452;42.780;23.116;2024-01-30T03:30:57;96243.00;;;20.42;32.91
55590;BME280;41452;42.780;23.116;2024-01-30T03:33:22;96241.63;;;20.39;32.61
55590;BME280;41452;42.780;23.116;2024-01-30T03:35:47;96234.13;;;20.36;32.32
55590;BME280;41452;42.780;23.116;2024-01-30T03:38:12;96235.66;;;20.32;32.72
55590;BME280;41452;42.780;23.116;2024-01-30T03:40:38;96233.75;;;20.27;32.93
55590;BME280;41452;42.780;23.116;2024-01-30T03:43:03;96236.91;;;20.24;32.85
55590;BME280;41452;42.780;23.116;2024-01-30T03:45:30;96238.22;;;20.22;33.23
55590;BME280;41452;42.780;23.116;2024-01-30T03:47:55;96242.72;;;20.21;33.00
55590;BME280;41452;42.780;23.116;2024-01-30T03:50:20;96231.00;;;20.22;32.88
55590;BME280;41452;42.780;23.116;2024-01-30T03:52:45;96222.75;;;20.24;33.16
55590;BME280;41452;42.780;23.116;2024-01-30T03:55:11;96224.34;;;20.25;33.02
55590;BME280;41452;42.780;23.116;2024-01-30T03:57:36;96223.88;;;20.28;33.05
55590;BME280;41452;42.780;23.116;2024-01-30T04:00:01;96217.50;;;20.29;33.11
55590;BME280;41452;42.780;23.116;2024-01-30T04:02:28;96221.53;;;20.31;32.91
55590;BME280;41452;42.780;23.116;2024-01-30T04:04:53;96228.47;;;20.32;32.93
55590;BME280;41452;42.780;23.116;2024-01-30T04:07:19;96217.53;;;20.34;32.86
55590;BME280;41452;42.780;23.116;2024-01-30T04:09:44;96223.72;;;20.35;32.65
55590;BME280;41452;42.780;23.116;2024-01-30T04:12:09;96219.97;;;20.36;32.92
55590;BME280;41452;42.780;23.116;2024-01-30T04:14:34;96227.72;;;20.37;32.75
55590;BME280;41452;42.780;23.116;2024-01-30T04:17:00;96200.59;;;20.23;32.94
55590;BME280;41452;42.780;23.116;2024-01-30T04:19:25;96232.59;;;20.40;32.86
55590;BME280;41452;42.780;23.116;2024-01-30T04:21:51;96228.88;;;20.41;32.75
55590;BME280;41452;42.780;23.116;2024-01-30T04:24:16;96225.13;;;20.42;32.92
55590;BME280;41452;42.780;23.116;2024-01-30T04:26:43;96232.09;;;20.43;32.79
55590;BME280;41452;42.780;23.116;2024-01-30T04:29:08;96232.09;;;20.43;32.68
55590;BME280;41452;42.780;23.116;2024-01-30T04:31:35;96231.28;;;20.43;32.32
55590;BME280;41452;42.780;23.116;2024-01-30T04:34:01;96237.38;;;20.38;32.37
55590;BME280;41452;42.780;23.116;2024-01-30T04:36:26;96235.41;;;20.33;32.26
55590;BME280;41452;42.780;23.116;2024-01-30T04:38:51;96233.22;;;20.30;32.51
55590;BME280;41452;42.780;23.116;2024-01-30T04:41:16;96234.78;;;20.26;32.71
55590;BME280;41452;42.780;23.116;2024-01-30T04:43:42;96252.34;;;20.22;32.71
55590;BME280;41452;42.780;23.116;2024-01-30T04:46:07;96250.97;;;20.20;32.88
55590;BME280;41452;42.780;23.116;2024-01-30T04:48:32;96250.41;;;20.18;33.05
55590;BME280;41452;42.780;23.116;2024-01-30T04:50:58;96253.31;;;20.16;33.24
55590;BME280;41452;42.780;23.116;2024-01-30T04:53:23;96254.38;;;20.15;33.13
55590;BME280;41452;42.780;23.116;2024-01-30T04:55:48;96257.84;;;20.16;32.97
55590;BME280;41452;42.780;23.116;2024-01-30T04:58:14;96268.84;;;20.19;32.79
55590;BME280;41452;42.780;23.116;2024-01-30T05:00:39;96263.25;;;20.21;32.90
55590;BME280;41452;42.780;23.116;2024-01-30T05:03:04;96258.47;;;20.23;32.81
55590;BME280;41452;42.780;23.116;2024-01-30T05:05:29;96265.44;;;20.24;32.84
55590;BME280;41452;42.780;23.116;2024-01-30T05:07:54;96267.03;;;20.25;32.76
55590;BME280;41452;42.780;23.116;2024-01-30T05:10:20;96267.59;;;20.27;32.93
55590;BME280;41452;42.780;23.116;2024-01-30T05:12:45;96267.34;;;20.28;32.62
55590;BME280;41452;42.780;23.116;2024-01-30T05:15:10;96273.53;;;20.29;32.54
55590;BME280;41452;42.780;23.116;2024-01-30T05:17:35;96266.31;;;20.29;32.83
55590;BME280;41452;42.780;23.116;2024-01-30T05:20:01;96273.00;;;20.32;32.58
55590;BME280;41452;42.780;23.116;2024-01-30T05:22:26;96271.97;;;20.33;32.50
55590;BME280;41452;42.780;23.116;2024-01-30T05:24:51;96268.22;;;20.34;32.55
55590;BME280;41452;42.780;23.116;2024-01-30T05:27:17;96274.41;;;20.35;32.56
55590;BME280;41452;42.780;23.116;2024-01-30T05:29:42;96279.50;;;20.36;32.35
55590;BME280;41452;42.780;23.116;2024-01-30T05:32:07;96269.63;;;20.37;32.29
55590;BME280;41452;42.780;23.116;2024-01-30T05:34:32;96268.81;;;20.36;32.17
55590;BME280;41452;42.780;23.116;2024-01-30T05:36:58;96258.63;;;20.33;31.85
55590;BME280;41452;42.780;23.116;2024-01-30T05:39:23;96273.53;;;20.29;31.92
55590;BME280;41452;42.780;23.116;2024-01-30T05:41:48;96275.03;;;20.25;32.00
55590;BME280;41452;42.780;23.116;2024-01-30T05:44:13;96269.38;;;20.21;32.07
55590;BME280;41452;42.780;23.116;2024-01-30T05:46:39;96269.31;;;20.16;32.21
55590;BME280;41452;42.780;23.116;2024-01-30T05:49:04;96270.13;;;20.17;32.21
55590;BME280;41452;42.780;23.116;2024-01-30T05:51:29;96271.75;;;20.18;32.25
55590;BME280;41452;42.780;23.116;2024-01-30T05:53:54;96275.78;;;20.20;32.42
55590;BME280;41452;42.780;23.116;2024-01-30T05:56:20;96276.59;;;20.21;32.25
55590;BME280;41452;42.780;23.116;2024-01-30T05:58:45;96281.44;;;20.24;32.46
55590;BME280;41452;42.780;23.116;2024-01-30T06:01:10;96276.66;;;20.26;32.27
55590;BME280;41452;42.780;23.116;2024-01-30T06:03:36;96270.25;;;20.27;32.13
55590;BME280;41452;42.780;23.116;2024-01-30T06:06:01;96278.84;;;20.29;32.22
55590;BME280;41452;42.780;23.116;2024-01-30T06:08:26;96278.59;;;20.30;32.25
55590;BME280;41452;42.780;23.116;2024-01-30T06:10:52;96276.75;;;20.31;32.08
55590;BME280;41452;42.780;23.116;2024-01-30T06:13:17;96279.19;;;20.32;31.97
55590;BME280;41452;42.780;23.116;2024-01-30T06:15:42;96276.25;;;20.34;32.17
55590;BME280;41452;42.780;23.116;2024-01-30T06:18:07;96284.25;;;20.34;31.87
55590;BME280;41452;42.780;23.116;2024-01-30T06:20:33;96278.44;;;20.37;32.11
55590;BME280;41452;42.780;23.116;2024-01-30T06:22:58;96281.09;;;20.37;32.02
55590;BME280;41452;42.780;23.116;2024-01-30T06:25:24;96278.19;;;20.39;32.09
55590;BME280;41452;42.780;23.116;2024-01-30T06:27:49;96288.63;;;20.40;32.04
55590;BME280;41452;42.780;23.116;2024-01-30T06:30:14;96288.63;;;20.40;32.06
55590;BME280;41452;42.780;23.116;2024-01-30T06:32:39;96290.25;;;20.41;32.08
55590;BME280;41452;42.780;23.116;2024-01-30T06:35:05;96285.72;;;20.42;32.05
55590;BME280;41452;42.780;23.116;2024-01-30T06:37:31;96290.81;;;20.43;31.94
55590;BME280;41452;42.780;23.116;2024-01-30T06:39:56;96287.06;;;20.44;31.77
55590;BME280;41452;42.780;23.116;2024-01-30T06:42:21;96292.41;;;20.44;31.53
55590;BME280;41452;42.780;23.116;2024-01-30T06:44:46;96298.81;;;20.43;31.42
55590;BME280;41452;42.780;23.116;2024-01-30T06:47:12;96287.00;;;20.39;31.44
55590;BME280;41452;42.780;23.116;2024-01-30T06:49:37;96289.34;;;20.36;31.44
55590;BME280;41452;42.780;23.116;2024-01-30T07:07:31;96285.88;;;20.35;32.07
55590;BME280;41452;42.780;23.116;2024-01-30T07:09:56;96285.38;;;20.38;31.93
55590;BME280;41452;42.780;23.116;2024-01-30T07:12:22;96282.47;;;20.40;31.89
55590;BME280;41452;42.780;23.116;2024-01-30T07:14:47;96281.97;;;20.43;31.97
55590;BME280;41452;42.780;23.116;2024-01-30T07:17:13;96290.56;;;20.45;32.03
55590;BME280;41452;42.780;23.116;2024-01-30T07:19:38;96294.59;;;20.47;32.08
55590;BME280;41452;42.780;23.116;2024-01-30T07:22:03;96293.28;;;20.50;31.93
55590;BME280;41452;42.780;23.116;2024-01-30T07:24:29;96296.78;;;20.50;32.04
55590;BME280;41452;42.780;23.116;2024-01-30T07:26:54;96293.59;;;20.54;32.05
55590;BME280;41452;42.780;23.116;2024-01-30T07:29:19;96300.56;;;20.55;32.04
55590;BME280;41452;42.780;23.116;2024-01-30T07:31:45;96296.56;;;20.57;31.92
55590;BME280;41452;42.780;23.116;2024-01-30T07:34:11;96291.25;;;20.57;31.92
55590;BME280;41452;42.780;23.116;2024-01-30T07:36:37;96295.53;;;20.58;31.81
55590;BME280;41452;42.780;23.116;2024-01-30T07:39:02;96290.44;;;20.57;31.58
55590;BME280;41452;42.780;23.116;2024-01-30T07:41:27;96291.75;;;20.54;31.68
55590;BME280;41452;42.780;23.116;2024-01-30T07:43:52;96294.09;;;20.50;31.64
55590;BME280;41452;42.780;23.116;2024-01-30T07:46:18;96284.72;;;20.48;31.81
55590;BME280;41452;42.780;23.116;2024-01-30T07:48:43;96299.38;;;20.45;31.85
55590;BME280;41452;42.780;23.116;2024-01-30T07:51:09;96289.19;;;20.42;32.16
55590;BME280;41452;42.780;23.116;2024-01-30T07:53:34;96289.19;;;20.42;32.29
55590;BME280;41452;42.780;23.116;2024-01-30T07:55:59;96284.63;;;20.43;32.32
55590;BME280;41452;42.780;23.116;2024-01-30T07:58:24;96284.16;;;20.46;32.25
55590;BME280;41452;42.780;23.116;2024-01-30T08:00:52;96284.47;;;20.49;32.29
55590;BME280;41452;42.780;23.116;2024-01-30T08:03:18;96287.69;;;20.51;32.29
55590;BME280;41452;42.780;23.116;2024-01-30T08:05:43;96280.00;;;20.55;32.07
55590;BME280;41452;42.780;23.116;2024-01-30T08:08:08;96290.44;;;20.57;32.20
55590;BME280;41452;42.780;23.116;2024-01-30T08:10:34;96279.28;;;20.60;32.05
55590;BME280;41452;42.780;23.116;2024-01-30T08:12:59;96282.53;;;20.62;32.17
55590;BME280;41452;42.780;23.116;2024-01-30T08:15:24;96282.84;;;20.65;32.15
55590;BME280;41452;42.780;23.116;2024-01-30T08:17:49;96285.28;;;20.67;32.07
55590;BME280;41452;42.780;23.116;2024-01-30T08:20:15;96288.50;;;20.69;32.11
55590;BME280;41452;42.780;23.116;2024-01-30T08:22:41;96277.59;;;20.70;31.94
55590;BME280;41452;42.780;23.116;2024-01-30T08:25:06;96283.97;;;20.69;31.82
55590;BME280;41452;42.780;23.116;2024-01-30T08:27:32;96285.28;;;20.67;31.60
55590;BME280;41452;42.780;23.116;2024-01-30T08:29:58;96282.06;;;20.65;31.66
55590;BME280;41452;42.780;23.116;2024-01-30T08:32:23;96286.84;;;20.63;31.72
55590;BME280;41452;42.780;23.116;2024-01-30T08:34:49;96283.56;;;20.61;31.50
55590;BME280;41452;42.780;23.116;2024-01-30T08:37:14;96295.53;;;20.58;31.38
55590;BME280;41452;42.780;23.116;2024-01-30T08:39:41;96287.78;;;20.57;31.43
55590;BME280;41452;42.780;23.116;2024-01-30T08:42:06;96293.09;;;20.57;31.83
55590;BME280;41452;42.780;23.116;2024-01-30T08:44:33;96296.34;;;20.59;32.05
55590;BME280;41452;42.780;23.116;2024-01-30T08:46:58;96296.91;;;20.61;32.05
55590;BME280;41452;42.780;23.116;2024-01-30T08:49:23;96292.72;;;20.65;32.09
55590;BME280;41452;42.780;23.116;2024-01-30T08:51:48;96286.06;;;20.67;32.24
55590;BME280;41452;42.780;23.116;2024-01-30T08:54:15;96291.72;;;20.71;32.09
55590;BME280;41452;42.780;23.116;2024-01-30T08:56:40;96288.34;;;20.76;32.03
55590;BME280;41452;42.780;23.116;2024-01-30T08:59:05;96291.31;;;20.79;31.95
55590;BME280;41452;42.780;23.116;2024-01-30T09:01:31;96291.88;;;20.81;31.96
55590;BME280;41452;42.780;23.116;2024-01-30T09:03:56;96291.38;;;20.84;31.86
55590;BME280;41452;42.780;23.116;2024-01-30T09:06:21;96283.94;;;20.86;32.02
55590;BME280;41452;42.780;23.116;2024-01-30T09:08:46;96292.50;;;20.88;31.98
55590;BME280;41452;42.780;23.116;2024-01-30T09:11:12;96292.75;;;20.87;31.79
55590;BME280;41452;42.780;23.116;2024-01-30T09:13:38;96294.06;;;20.84;31.46
55590;BME280;41452;42.780;23.116;2024-01-30T09:16:03;96289.75;;;20.83;31.67
55590;BME280;41452;42.780;23.116;2024-01-30T09:18:29;96291.88;;;20.81;31.64
55590;BME280;41452;42.780;23.116;2024-01-30T09:20:54;96284.59;;;20.77;31.66
55590;BME280;41452;42.780;23.116;2024-01-30T09:23:19;96285.66;;;20.76;31.73
55590;BME280;41452;42.780;23.116;2024-01-30T09:25:45;96284.28;;;20.73;31.74
55590;BME280;41452;42.780;23.116;2024-01-30T09:28:10;96282.69;;;20.72;31.57
55590;BME280;41452;42.780;23.116;2024-01-30T09:30:35;96285.84;;;20.69;31.63
55590;BME280;41452;42.780;23.116;2024-01-30T09:33:00;96284.25;;;20.68;31.76
55590;BME280;41452;42.780;23.116;2024-01-30T09:35:26;96272.50;;;20.69;32.23
55590;BME280;41452;42.780;23.116;2024-01-30T09:37:51;96272.50;;;20.69;32.38
55590;BME280;41452;42.780;23.116;2024-01-30T09:40:18;96275.72;;;20.71;32.71
55590;BME280;41452;42.780;23.116;2024-01-30T09:42:48;96268.25;;;20.73;32.88
55590;BME280;41452;42.780;23.116;2024-01-30T09:45:15;96278.13;;;20.73;32.97
55590;BME280;41452;42.780;23.116;2024-01-30T09:47:41;96279.78;;;20.74;32.98
55590;BME280;41452;42.780;23.116;2024-01-30T09:50:13;96273.13;;;20.76;32.95
55590;BME280;41452;42.780;23.116;2024-01-30T09:52:39;96267.28;;;20.79;32.98
55590;BME280;41452;42.780;23.116;2024-01-30T09:55:05;96269.47;;;20.82;32.65
55590;BME280;41452;42.780;23.116;2024-01-30T09:57:31;96260.94;;;20.85;32.66
55590;BME280;41452;42.780;23.116;2024-01-30T09:59:56;96269.00;;;20.91;32.72
55590;BME280;41452;42.780;23.116;2024-01-30T10:02:22;96259.72;;;20.93;32.84
55590;BME280;41452;42.780;23.116;2024-01-30T10:04:48;96262.69;;;20.97;32.66
55590;BME280;41452;42.780;23.116;2024-01-30T10:07:14;96263.25;;;20.99;32.69
55590;BME280;41452;42.780;23.116;2024-01-30T10:09:40;96258.72;;;20.99;32.61
55590;BME280;41452;42.780;23.116;2024-01-30T10:12:05;96258.94;;;20.98;32.35
55590;BME280;41452;42.780;23.116;2024-01-30T10:14:30;96257.34;;;20.97;32.19
55590;BME280;41452;42.780;23.116;2024-01-30T10:16:57;96256.53;;;20.96;32.38
55590;BME280;41452;42.780;23.116;2024-01-30T10:19:22;96248.78;;;20.95;32.51
55590;BME280;41452;42.780;23.116;2024-01-30T10:21:47;96248.78;;;20.95;32.53
55590;BME280;41452;42.780;23.116;2024-01-30T10:24:13;96250.63;;;20.94;32.51
55590;BME280;41452;42.780;23.116;2024-01-30T10:26:39;96253.31;;;20.94;32.41
55590;BME280;41452;42.780;23.116;2024-01-30T10:29:04;96247.16;;;20.94;32.53
55590;BME280;41452;42.780;23.116;2024-01-30T10:31:29;96247.16;;;20.94;32.77
55590;BME280;41452;42.780;23.116;2024-01-30T10:33:54;96248.78;;;20.95;32.81
55590;BME280;41452;42.780;23.116;2024-01-30T10:36:20;96254.13;;;20.95;32.90
55590;BME280;41452;42.780;23.116;2024-01-30T10:38:48;96244.00;;;20.97;33.15
55590;BME280;41452;42.780;23.116;2024-01-30T10:41:16;96245.34;;;20.99;33.12
55590;BME280;41452;42.780;23.116;2024-01-30T10:43:44;96247.28;;;21.04;33.20
55590;BME280;41452;42.780;23.116;2024-01-30T10:46:19;96239.59;;;21.07;33.37
55590;BME280;41452;42.780;23.116;2024-01-30T10:48:46;96240.69;;;21.12;33.31
55590;BME280;41452;42.780;23.116;2024-01-30T10:51:15;96241.53;;;21.17;33.20
55590;BME280;41452;42.780;23.116;2024-01-30T10:53:41;96230.34;;;21.20;33.33
55590;BME280;41452;42.780;23.116;2024-01-30T10:56:06;96226.94;;;21.25;33.25
55590;BME280;41452;42.780;23.116;2024-01-30T10:58:33;96223.19;;;21.26;33.17
55590;BME280;41452;42.780;23.116;2024-01-30T11:00:58;96225.94;;;21.31;32.98
55590;BME280;41452;42.780;23.116;2024-01-30T11:03:24;96216.03;;;21.32;32.69
55590;BME280;41452;42.780;23.116;2024-01-30T11:05:49;96215.47;;;21.30;32.67
55590;BME280;41452;42.780;23.116;2024-01-30T11:08:22;96211.22;;;21.29;32.62
55590;BME280;41452;42.780;23.116;2024-01-30T11:10:47;96210.38;;;21.28;32.67
55590;BME280;41452;42.780;23.116;2024-01-30T11:13:13;96217.59;;;21.27;33.00
55590;BME280;41452;42.780;23.116;2024-01-30T11:15:38;96207.16;;;21.26;32.89
55590;BME280;41452;42.780;23.116;2024-01-30T11:18:05;96208.78;;;21.27;33.25
55590;BME280;41452;42.780;23.116;2024-01-30T11:20:31;96200.22;;;21.25;33.09
55590;BME280;41452;42.780;23.116;2024-01-30T11:22:57;96201.03;;;21.25;33.06
55590;BME280;41452;42.780;23.116;2024-01-30T11:25:23;96197.81;;;21.23;33.25
55590;BME280;41452;42.780;23.116;2024-01-30T11:27:55;96199.66;;;21.23;33.42
55590;BME280;41452;42.780;23.116;2024-01-30T11:30:30;96199.66;;;21.23;33.43
55590;BME280;41452;42.780;23.116;2024-01-30T11:33:04;96198.06;;;21.22;33.58
55590;BME280;41452;42.780;23.116;2024-01-30T11:35:33;96199.09;;;21.21;33.52
55590;BME280;41452;42.780;23.116;2024-01-30T11:37:59;96198.31;;;21.20;33.68
55590;BME280;41452;42.780;23.116;2024-01-30T11:40:26;96198.31;;;21.20;33.71
55590;BME280;41452;42.780;23.116;2024-01-30T11:42:52;96192.16;;;21.20;33.92
55590;BME280;41452;42.780;23.116;2024-01-30T11:45:18;96196.19;;;21.22;33.96
55590;BME280;41452;42.780;23.116;2024-01-30T11:47:43;96185.78;;;21.26;34.01
55590;BME280;41452;42.780;23.116;2024-01-30T11:50:08;96188.75;;;21.30;34.04
55590;BME280;41452;42.780;23.116;2024-01-30T11:52:35;96185.34;;;21.34;34.18
55590;BME280;41452;42.780;23.116;2024-01-30T11:55:01;96180.56;;;21.36;34.03
55590;BME280;41452;42.780;23.116;2024-01-30T11:57:27;96180.84;;;21.40;33.92
55590;BME280;41452;42.780;23.116;2024-01-30T11:59:53;96171.50;;;21.42;33.88
55590;BME280;41452;42.780;23.116;2024-01-30T12:02:18;96169.16;;;21.46;33.84
55590;BME280;41452;42.780;23.116;2024-01-30T12:04:43;96165.44;;;21.47;33.71
55590;BME280;41452;42.780;23.116;2024-01-30T12:07:09;96165.91;;;21.44;33.72
55590;BME280;41452;42.780;23.116;2024-01-30T12:09:34;96157.34;;;21.42;33.71
55590;BME280;41452;42.780;23.116;2024-01-30T12:11:59;96154.13;;;21.40;33.81
55590;BME280;41452;42.780;23.116;2024-01-30T12:14:25;96151.44;;;21.40;33.88
55590;BME280;41452;42.780;23.116;2024-01-30T12:16:51;96156.25;;;21.38;33.95
55590;BME280;41452;42.780;23.116;2024-01-30T12:19:22;96143.94;;;21.37;34.14
55590;BME280;41452;42.780;23.116;2024-01-30T12:21:53;96142.34;;;21.36;34.26
55590;BME280;41452;42.780;23.116;2024-01-30T12:24:18;96145.25;;;21.34;33.96
55590;BME280;41452;42.780;23.116;2024-01-30T12:26:43;96149.81;;;21.34;34.22
55590;BME280;41452;42.780;23.116;2024-01-30T12:29:09;96132.41;;;21.31;34.22
55590;BME280;41452;42.780;23.116;2024-01-30T12:31:34;96140.41;;;21.31;34.32
55590;BME280;41452;42.780;23.116;2024-01-30T12:33:59;96133.72;;;21.29;34.46
55590;BME280;41452;42.780;23.116;2024-01-30T12:36:25;96129.44;;;21.27;34.34
55590;BME280;41452;42.780;23.116;2024-01-30T12:38:50;96141.19;;;21.26;34.48
55590;BME280;41452;42.780;23.116;2024-01-30T12:41:15;96110.28;;;21.08;34.76
55590;BME280;41452;42.780;23.116;2024-01-30T12:43:41;96146.22;;;21.23;34.46
55590;BME280;41452;42.780;23.116;2024-01-30T12:46:07;96131.25;;;21.22;34.60
55590;BME280;41452;42.780;23.116;2024-01-30T12:48:32;96127.50;;;21.23;34.79
55590;BME280;41452;42.780;23.116;2024-01-30T12:50:57;96130.75;;;21.25;34.72
55590;BME280;41452;42.780;23.116;2024-01-30T12:53:23;96115.28;;;21.27;34.67
55590;BME280;41452;42.780;23.116;2024-01-30T12:55:48;96129.97;;;21.30;34.80
55590;BME280;41452;42.780;23.116;2024-01-30T12:58:15;96123.34;;;21.32;34.65